createdAt,value
2019-03-24T00:01:18.686Z,7.54
2019-03-24T00:03:46.472Z,7.62
2019-03-24T00:06:15.235Z,7.73
2019-03-24T00:08:43.961Z,7.90
2019-03-24T00:11:11.614Z,7.79
2019-03-24T00:13:40.352Z,7.45
2019-03-24T00:16:07.932Z,7.41
2019-03-24T00:18:35.610Z,7.45
2019-03-24T00:21:03.281Z,7.46
2019-03-24T00:23:31.007Z,7.52
2019-03-24T00:26:00.211Z,7.48
2019-03-24T00:28:27.812Z,7.37
2019-03-24T00:30:55.409Z,7.19
2019-03-24T00:33:27.240Z,7.09
2019-03-24T00:35:55.920Z,6.96
2019-03-24T00:38:23.698Z,6.82
2019-03-24T00:40:51.327Z,6.86
2019-03-24T00:43:18.911Z,6.78
2019-03-24T00:45:46.684Z,6.87
2019-03-24T00:48:15.472Z,6.97
2019-03-24T00:50:43.166Z,6.96
2019-03-24T00:53:11.894Z,7.35
2019-03-24T00:55:39.532Z,7.21
2019-03-24T00:58:07.291Z,7.37
2019-03-24T01:00:48.913Z,7.30
2019-03-24T01:03:17.678Z,7.11
2019-03-24T01:05:45.590Z,7.07
2019-03-24T01:08:14.213Z,6.94
2019-03-24T01:10:41.767Z,6.81
2019-03-24T01:13:11.168Z,6.83
2019-03-24T01:15:47.388Z,6.96
2019-03-24T01:18:08.823Z,6.93
2019-03-24T01:20:37.516Z,6.89
2019-03-24T01:23:06.465Z,6.93
2019-03-24T01:25:34.065Z,6.82
2019-03-24T01:28:01.656Z,6.79
2019-03-24T01:30:29.407Z,6.72
2019-03-24T01:32:57.318Z,6.71
2019-03-24T01:35:25.987Z,6.75
2019-03-24T01:37:53.629Z,6.86
2019-03-24T01:40:21.806Z,6.88
2019-03-24T01:42:49.403Z,6.84
2019-03-24T01:45:17.095Z,6.72
2019-03-24T01:47:46.103Z,6.73
2019-03-24T01:50:13.863Z,6.71
2019-03-24T01:52:41.771Z,6.78
2019-03-24T01:55:09.758Z,6.79
2019-03-24T01:57:37.331Z,6.68
2019-03-24T02:00:05.409Z,6.61
2019-03-24T02:02:35.435Z,6.55
2019-03-24T02:05:03.481Z,6.33
2019-03-24T02:07:31.124Z,6.44
2019-03-24T02:09:59.060Z,6.33
2019-03-24T02:12:26.647Z,6.27
2019-03-24T02:14:54.649Z,6.22
2019-03-24T02:17:22.215Z,6.06
2019-03-24T02:19:49.811Z,6.11
2019-03-24T02:22:17.805Z,6.33
2019-03-24T02:24:45.680Z,6.24
2019-03-24T02:27:13.272Z,6.41
2019-03-24T02:29:41.452Z,6.50
2019-03-24T02:32:09.089Z,6.46
2019-03-24T02:34:38.118Z,6.53
2019-03-24T02:37:06.125Z,6.52
2019-03-24T02:39:33.929Z,6.50
2019-03-24T02:42:02.067Z,6.74
2019-03-24T02:44:29.714Z,6.71
2019-03-24T02:46:57.423Z,6.66
2019-03-24T02:49:26.334Z,6.45
2019-03-24T02:51:54.043Z,6.58
2019-03-24T02:54:22.148Z,6.81
2019-03-24T02:56:50.613Z,6.88
2019-03-24T02:59:18.649Z,6.86
2019-03-24T03:01:46.521Z,6.96
2019-03-24T03:04:15.197Z,7.07
2019-03-24T03:06:44.125Z,7.02
2019-03-24T03:09:12.036Z,6.88
2019-03-24T03:11:39.817Z,6.94
2019-03-24T03:14:07.455Z,6.83
2019-03-24T03:16:38.661Z,6.93
2019-03-24T03:19:04.558Z,6.78
2019-03-24T03:21:32.288Z,6.87
2019-03-24T03:24:00.571Z,6.75
2019-03-24T03:26:28.217Z,6.71
2019-03-24T03:28:55.853Z,6.63
2019-03-24T03:31:23.419Z,6.81
2019-03-24T03:33:51.202Z,6.92
2019-03-24T03:36:19.876Z,6.95
2019-03-24T03:38:47.940Z,6.89
2019-03-24T03:41:15.623Z,6.73
2019-03-24T03:43:43.254Z,6.74
2019-03-24T03:46:11.537Z,6.70
2019-03-24T03:48:39.491Z,6.77
2019-03-24T03:51:07.156Z,6.63
2019-03-24T03:53:35.181Z,6.47
2019-03-24T03:56:02.805Z,6.54
2019-03-24T03:58:30.565Z,6.31
2019-03-24T04:00:58.559Z,6.55
2019-03-24T04:03:26.222Z,6.53
2019-03-24T04:05:54.027Z,6.43
2019-03-24T04:08:21.819Z,6.37
2019-03-24T04:10:49.581Z,6.41
2019-03-24T04:13:17.571Z,6.47
2019-03-24T04:15:45.587Z,6.50
2019-03-24T04:18:13.154Z,6.50
2019-03-24T04:20:40.786Z,6.40
2019-03-24T04:23:09.076Z,6.25
2019-03-24T04:25:37.095Z,6.12
2019-03-24T04:28:04.775Z,6.06
2019-03-24T04:30:32.914Z,6.10
2019-03-24T04:33:01.500Z,6.06
2019-03-24T04:35:29.241Z,6.03
2019-03-24T04:37:56.822Z,6.10
2019-03-24T04:40:24.377Z,6.18
2019-03-24T04:42:52.569Z,6.07
2019-03-24T04:45:20.674Z,6.07
2019-03-24T04:47:48.344Z,6.04
2019-03-24T04:50:15.953Z,6.13
2019-03-24T04:52:44.069Z,6.27
2019-03-24T04:55:11.775Z,6.38
2019-03-24T04:57:39.367Z,6.29
2019-03-24T05:00:07.764Z,6.29
2019-03-24T05:02:35.962Z,6.27
2019-03-24T05:05:03.750Z,6.12
2019-03-24T05:07:31.567Z,6.02
2019-03-24T05:09:59.603Z,5.98
2019-03-24T05:12:27.198Z,5.97
2019-03-24T05:14:55.243Z,6.07
2019-03-24T05:17:26.994Z,6.17
2019-03-24T05:19:52.340Z,6.32
2019-03-24T05:22:21.716Z,6.36
2019-03-24T05:24:49.913Z,6.47
2019-03-24T05:27:17.635Z,6.41
2019-03-24T05:29:45.474Z,6.38
2019-03-24T05:32:13.048Z,6.57
2019-03-24T05:34:40.812Z,6.55
2019-03-24T05:37:08.387Z,6.52
2019-03-24T05:39:35.964Z,6.54
2019-03-24T05:42:03.783Z,6.48
2019-03-24T05:44:31.366Z,6.45
2019-03-24T05:46:59.227Z,6.55
2019-03-24T05:49:26.966Z,6.50
2019-03-24T05:51:54.530Z,6.33
2019-03-24T05:54:22.284Z,6.19
2019-03-24T05:56:50.026Z,6.42
2019-03-24T05:59:17.596Z,6.43
2019-03-24T06:01:45.285Z,6.31
2019-03-24T06:04:13.315Z,6.35
2019-03-24T06:06:41.061Z,6.20
2019-03-24T06:09:08.632Z,6.07
2019-03-24T06:11:36.264Z,6.17
2019-03-24T06:14:04.016Z,6.24
2019-03-24T06:16:31.679Z,6.36
2019-03-24T06:19:00.197Z,6.29
2019-03-24T06:21:27.774Z,6.59
2019-03-24T06:23:55.556Z,6.51
2019-03-24T06:26:23.933Z,6.41
2019-03-24T06:28:51.527Z,6.75
2019-03-24T06:31:19.097Z,6.67
2019-03-24T06:33:47.153Z,6.62
2019-03-24T06:36:14.734Z,6.63
2019-03-24T06:38:42.473Z,6.92
2019-03-24T06:41:10.462Z,6.94
2019-03-24T06:43:38.119Z,6.99
2019-03-24T06:46:05.700Z,7.12
2019-03-24T06:48:34.887Z,7.18
2019-03-24T06:51:02.444Z,7.45
2019-03-24T06:53:30.134Z,7.53
2019-03-24T06:55:58.077Z,7.73
2019-03-24T06:58:25.838Z,7.94
2019-03-24T07:00:53.433Z,7.98
2019-03-24T07:03:21.068Z,7.92
2019-03-24T07:05:49.745Z,8.35
2019-03-24T07:08:17.496Z,8.34
2019-03-24T07:10:46.126Z,8.72
2019-03-24T07:13:13.957Z,8.71
2019-03-24T07:15:41.541Z,9.11
2019-03-24T07:18:09.142Z,9.03
2019-03-24T07:20:36.830Z,9.61
2019-03-24T07:23:04.451Z,10.08
2019-03-24T07:25:32.531Z,10.40
2019-03-24T07:28:00.211Z,11.14
2019-03-24T07:30:27.894Z,11.57
2019-03-24T07:32:56.048Z,11.26
2019-03-24T07:35:23.728Z,11.36
2019-03-24T07:37:51.442Z,11.47
2019-03-24T07:40:19.349Z,11.22
2019-03-24T07:42:47.083Z,10.74
2019-03-24T07:45:15.669Z,11.70
2019-03-24T07:47:45.448Z,11.14
2019-03-24T07:50:13.831Z,10.89
2019-03-24T07:52:41.935Z,10.98
2019-03-24T07:55:09.816Z,10.94
2019-03-24T07:57:37.503Z,11.16
2019-03-24T08:00:06.375Z,11.52
2019-03-24T08:02:34.406Z,11.29
2019-03-24T08:05:02.112Z,11.46
2019-03-24T08:07:33.363Z,11.38
2019-03-24T08:10:01.020Z,11.91
2019-03-24T08:12:28.572Z,12.44
2019-03-24T08:14:57.067Z,12.32
2019-03-24T08:17:25.904Z,12.17
2019-03-24T08:19:53.648Z,12.48
2019-03-24T08:22:21.843Z,13.11
2019-03-24T08:24:49.442Z,12.75
2019-03-24T08:27:18.118Z,12.86
2019-03-24T08:29:45.943Z,12.30
2019-03-24T08:32:13.619Z,12.33
2019-03-24T08:34:41.681Z,12.53
2019-03-24T08:37:10.429Z,12.54
2019-03-24T08:39:38.165Z,12.61
2019-03-24T08:42:06.137Z,13.39
2019-03-24T08:44:33.772Z,13.92
2019-03-24T08:47:01.457Z,14.45
2019-03-24T08:49:30.210Z,14.72
2019-03-24T08:51:58.232Z,14.60
2019-03-24T08:54:25.804Z,14.60
2019-03-24T08:56:53.485Z,13.84
2019-03-24T08:59:21.098Z,13.68
2019-03-24T09:01:48.687Z,14.48
2019-03-24T09:04:16.413Z,15.52
2019-03-24T09:06:44.352Z,15.20
2019-03-24T09:09:12.108Z,13.67
2019-03-24T09:11:40.208Z,13.19
2019-03-24T09:14:08.944Z,13.53
2019-03-24T09:16:36.639Z,14.23
2019-03-24T09:19:04.495Z,14.12
2019-03-24T09:21:32.237Z,13.91
2019-03-24T09:24:01.222Z,15.17
2019-03-24T09:26:29.444Z,15.59
2019-03-24T09:28:59.195Z,14.60
2019-03-24T09:31:26.630Z,13.95
2019-03-24T09:33:54.283Z,15.06
2019-03-24T09:36:21.928Z,14.98
2019-03-24T09:38:49.510Z,15.86
2019-03-24T09:41:17.496Z,15.35
2019-03-24T09:43:45.104Z,14.55
2019-03-24T09:46:12.715Z,15.22
2019-03-24T09:48:40.391Z,14.01
2019-03-24T09:51:08.102Z,14.10
2019-03-24T09:53:35.711Z,14.58
2019-03-24T09:56:03.509Z,15.44
2019-03-24T09:58:31.201Z,15.00
2019-03-24T10:00:58.881Z,15.73
2019-03-24T10:03:26.885Z,16.48
2019-03-24T10:05:54.810Z,16.79
2019-03-24T10:08:22.932Z,15.30
2019-03-24T10:10:50.753Z,15.22
2019-03-24T10:13:19.648Z,15.21
2019-03-24T10:15:54.435Z,15.89
2019-03-24T10:18:24.784Z,17.19
2019-03-24T10:20:52.374Z,17.97
2019-03-24T10:23:28.443Z,18.52
2019-03-24T10:25:56.735Z,18.81
2019-03-24T10:28:24.672Z,19.35
2019-03-24T10:30:52.512Z,18.71
2019-03-24T10:33:20.195Z,18.50
2019-03-24T10:35:48.337Z,18.04
2019-03-24T10:38:16.248Z,18.28
2019-03-24T10:40:44.171Z,20.20
2019-03-24T10:43:14.437Z,20.50
2019-03-24T10:45:42.176Z,19.90
2019-03-24T10:48:09.933Z,21.40
2019-03-24T10:50:37.508Z,23.33
2019-03-24T10:53:05.345Z,22.29
2019-03-24T10:55:33.004Z,21.26
2019-03-24T10:58:00.944Z,20.32
2019-03-24T11:00:42.334Z,20.28
2019-03-24T11:03:12.196Z,22.53
2019-03-24T11:05:39.827Z,22.59
2019-03-24T11:08:08.690Z,23.99
2019-03-24T11:10:36.341Z,22.68
2019-03-24T11:13:03.951Z,21.50
2019-03-24T11:15:31.900Z,22.26
2019-03-24T11:18:01.184Z,22.68
2019-03-24T11:20:30.149Z,23.90
2019-03-24T11:22:58.914Z,23.53
2019-03-24T11:25:26.720Z,22.82
2019-03-24T11:27:54.361Z,20.82
2019-03-24T11:30:22.460Z,23.17
2019-03-24T11:32:50.049Z,20.93
2019-03-24T11:35:17.815Z,19.38
2019-03-24T11:37:45.491Z,17.87
2019-03-24T11:40:13.483Z,19.67
2019-03-24T11:42:41.178Z,22.07
2019-03-24T11:45:10.175Z,23.45
2019-03-24T11:47:37.972Z,28.31
2019-03-24T11:50:06.869Z,27.93
2019-03-24T11:52:34.911Z,26.59
2019-03-24T11:55:02.726Z,27.36
2019-03-24T11:57:30.406Z,28.43
2019-03-24T11:59:58.668Z,24.17
2019-03-24T12:02:26.446Z,22.43
2019-03-24T12:04:54.089Z,25.25
2019-03-24T12:07:22.165Z,26.11
2019-03-24T12:09:49.784Z,21.37
2019-03-24T12:12:17.403Z,19.64
2019-03-24T12:14:45.129Z,18.68
2019-03-24T12:17:13.281Z,19.57
2019-03-24T12:19:40.995Z,20.45
2019-03-24T12:22:08.742Z,20.76
2019-03-24T12:24:36.340Z,18.49
2019-03-24T12:27:05.878Z,17.42
2019-03-24T12:29:33.562Z,17.07
2019-03-24T12:32:01.341Z,17.28
2019-03-24T12:34:29.013Z,16.62
2019-03-24T12:36:56.638Z,15.73
2019-03-24T12:39:24.274Z,15.60
2019-03-24T12:41:51.896Z,15.73
2019-03-24T12:44:21.244Z,15.99
2019-03-24T12:46:50.071Z,15.62
2019-03-24T12:49:17.750Z,16.27
2019-03-24T12:51:45.413Z,15.73
2019-03-24T12:54:13.186Z,16.37
2019-03-24T12:56:41.085Z,16.30
2019-03-24T12:59:08.862Z,17.21
2019-03-24T13:01:36.483Z,16.71
2019-03-24T13:04:04.741Z,17.06
2019-03-24T13:06:35.793Z,16.06
2019-03-24T13:09:04.533Z,15.58
2019-03-24T13:11:33.529Z,15.25
2019-03-24T13:14:01.191Z,15.01
2019-03-24T13:16:29.274Z,14.71
2019-03-24T13:18:57.030Z,14.74
2019-03-24T13:21:27.314Z,14.72
2019-03-24T13:23:55.112Z,14.92
2019-03-24T13:26:22.778Z,15.12
2019-03-24T13:28:50.428Z,15.44
2019-03-24T13:31:18.635Z,15.45
2019-03-24T13:33:47.162Z,15.69
2019-03-24T13:36:14.915Z,16.12
2019-03-24T13:38:42.536Z,15.25
2019-03-24T13:41:12.072Z,15.03
2019-03-24T13:43:39.830Z,15.15
2019-03-24T13:46:07.799Z,15.93
2019-03-24T13:48:35.453Z,15.99
2019-03-24T13:51:03.205Z,16.23
2019-03-24T13:53:30.794Z,15.89
2019-03-24T13:55:58.389Z,17.08
2019-03-24T13:58:26.114Z,18.09
2019-03-24T14:00:53.808Z,16.46
2019-03-24T14:03:21.408Z,16.44
2019-03-24T14:05:49.618Z,16.53
2019-03-24T14:08:17.267Z,16.63
2019-03-24T14:10:44.866Z,16.35
2019-03-24T14:13:12.951Z,16.80
2019-03-24T14:15:40.612Z,19.02
2019-03-24T14:18:08.416Z,20.83
2019-03-24T14:20:43.277Z,22.17
2019-03-24T14:23:05.860Z,20.47
2019-03-24T14:25:33.493Z,19.83
2019-03-24T14:28:01.562Z,19.80
2019-03-24T14:30:57.536Z,18.83
2019-03-24T14:33:25.303Z,19.12
2019-03-24T14:35:52.997Z,18.34
2019-03-24T14:38:20.719Z,18.32
2019-03-24T14:40:48.695Z,16.49
2019-03-24T14:43:16.676Z,16.96
2019-03-24T14:45:45.874Z,17.02
2019-03-24T14:48:13.586Z,16.70
2019-03-24T14:50:41.217Z,16.13
2019-03-24T14:53:08.957Z,15.35
2019-03-24T14:55:36.678Z,15.51
2019-03-24T14:58:04.460Z,14.89
2019-03-24T15:00:36.551Z,14.82
2019-03-24T15:03:04.869Z,14.51
2019-03-24T15:05:33.168Z,14.23
2019-03-24T15:08:04.000Z,14.27
2019-03-24T15:10:31.748Z,14.30
2019-03-24T15:12:59.412Z,14.11
2019-03-24T15:15:27.508Z,14.31
2019-03-24T15:17:55.342Z,14.79
2019-03-24T15:20:22.993Z,14.57
2019-03-24T15:22:51.249Z,14.59
2019-03-24T15:25:18.862Z,14.66
2019-03-24T15:27:46.612Z,14.48
2019-03-24T15:30:14.603Z,14.25
2019-03-24T15:32:42.370Z,14.37
2019-03-24T15:35:10.222Z,14.39
2019-03-24T15:37:38.316Z,13.97
2019-03-24T15:40:07.433Z,13.65
2019-03-24T15:42:35.250Z,13.65
2019-03-24T15:45:03.966Z,13.54
2019-03-24T15:47:31.556Z,13.46
2019-03-24T15:49:59.366Z,13.30
2019-03-24T15:52:27.123Z,13.32
2019-03-24T15:54:54.993Z,13.23
2019-03-24T15:57:22.726Z,13.23
2019-03-24T15:59:50.558Z,13.16
2019-03-24T16:02:18.496Z,12.88
2019-03-24T16:04:46.499Z,12.77
2019-03-24T16:07:14.201Z,12.90
2019-03-24T16:09:41.875Z,12.89
2019-03-24T16:12:09.703Z,12.84
2019-03-24T16:14:37.356Z,12.82
2019-03-24T16:17:05.036Z,12.68
2019-03-24T16:19:33.186Z,12.69
2019-03-24T16:22:02.014Z,12.83
2019-03-24T16:24:29.711Z,12.66
2019-03-24T16:26:58.839Z,12.58
2019-03-24T16:29:26.502Z,12.55
2019-03-24T16:31:54.555Z,12.55
2019-03-24T16:34:22.178Z,12.56
2019-03-24T16:37:11.131Z,12.56
2019-03-24T16:39:38.860Z,12.52
2019-03-24T16:42:06.527Z,12.46
2019-03-24T16:44:34.262Z,12.56
2019-03-24T16:47:02.389Z,12.54
2019-03-24T16:49:30.039Z,12.54
2019-03-24T16:52:04.229Z,12.44
2019-03-24T16:54:32.104Z,12.38
2019-03-24T16:56:59.809Z,12.31
2019-03-24T16:59:27.443Z,12.36
2019-03-24T17:01:55.336Z,12.37
2019-03-24T17:04:22.966Z,12.40
2019-03-24T17:06:50.962Z,12.63
2019-03-24T17:09:18.617Z,12.58
2019-03-24T17:11:46.327Z,13.12
2019-03-24T17:14:14.190Z,14.10
2019-03-24T17:16:42.034Z,14.64
2019-03-24T17:19:09.981Z,15.01
2019-03-24T17:21:49.906Z,14.25
2019-03-24T17:24:13.489Z,13.34
2019-03-24T17:26:41.135Z,13.64
2019-03-24T17:29:08.964Z,13.18
2019-03-24T17:31:39.158Z,12.96
2019-03-24T17:34:07.611Z,12.54
2019-03-24T17:36:35.359Z,12.25
2019-03-24T17:39:05.662Z,11.96
2019-03-24T17:41:33.406Z,11.75
2019-03-24T17:44:03.379Z,11.57
2019-03-24T17:46:31.124Z,11.39
2019-03-24T17:49:00.837Z,11.27
2019-03-24T17:51:31.352Z,11.16
2019-03-24T17:53:59.363Z,11.03
2019-03-24T17:56:27.078Z,11.05
2019-03-24T17:58:54.837Z,11.03
2019-03-24T18:01:22.464Z,10.79
2019-03-24T18:03:50.189Z,10.58
2019-03-24T18:06:17.837Z,10.47
2019-03-24T18:08:45.990Z,10.37
2019-03-24T18:11:13.741Z,10.49
2019-03-24T18:13:41.733Z,10.39
2019-03-24T18:16:09.543Z,10.32
2019-03-24T18:18:37.576Z,10.22
2019-03-24T18:21:05.376Z,10.13
2019-03-24T18:23:33.355Z,10.01
2019-03-24T18:26:01.834Z,9.96
2019-03-24T18:28:29.563Z,9.85
2019-03-24T18:30:58.561Z,9.78
2019-03-24T18:33:26.493Z,9.71
2019-03-24T18:35:54.676Z,9.71
2019-03-24T18:38:22.373Z,9.75
2019-03-24T18:40:50.206Z,9.77
2019-03-24T18:43:17.865Z,9.73
2019-03-24T18:45:45.708Z,9.70
2019-03-24T18:48:13.448Z,9.64
2019-03-24T18:50:41.399Z,9.60
2019-03-24T18:53:10.274Z,9.57
2019-03-24T18:55:39.644Z,9.46
2019-03-24T18:58:07.445Z,9.44
2019-03-24T19:00:35.177Z,9.48
2019-03-24T19:03:03.462Z,9.37
2019-03-24T19:05:31.521Z,9.33
2019-03-24T19:07:59.201Z,9.27
2019-03-24T19:10:27.844Z,9.11
2019-03-24T19:12:55.860Z,8.95
2019-03-24T19:15:23.551Z,8.85
2019-03-24T19:17:52.057Z,8.77
2019-03-24T19:20:20.012Z,8.65
2019-03-24T19:22:48.139Z,8.64
2019-03-24T19:25:16.016Z,8.48
2019-03-24T19:27:43.962Z,8.40
2019-03-24T19:30:13.868Z,8.35
2019-03-24T19:32:42.346Z,8.31
2019-03-24T19:35:10.406Z,8.30
2019-03-24T19:37:41.434Z,8.29
2019-03-24T19:40:25.227Z,8.21
2019-03-24T19:42:53.347Z,8.18
2019-03-24T19:45:21.257Z,8.10
2019-03-24T19:47:50.258Z,8.06
2019-03-24T19:50:18.089Z,8.12
2019-03-24T19:52:45.980Z,8.02
2019-03-24T19:55:16.378Z,8.05
2019-03-24T19:57:44.151Z,7.93
2019-03-24T20:00:13.016Z,7.97
2019-03-24T20:02:40.891Z,7.94
2019-03-24T20:05:09.289Z,8.00
2019-03-24T20:07:47.381Z,8.05
2019-03-24T20:10:07.143Z,8.02
2019-03-24T20:12:36.007Z,8.07
2019-03-24T20:15:04.631Z,8.06
2019-03-24T20:17:32.360Z,8.03
2019-03-24T20:20:00.353Z,8.16
2019-03-24T20:22:28.525Z,8.39
2019-03-24T20:24:56.331Z,8.39
2019-03-24T20:27:25.931Z,8.40
2019-03-24T20:29:53.624Z,8.42
2019-03-24T20:32:21.695Z,8.37
2019-03-24T20:34:49.505Z,8.30
2019-03-24T20:37:17.175Z,8.50
2019-03-24T20:39:46.769Z,8.52
2019-03-24T20:42:14.423Z,8.40
2019-03-24T20:44:42.220Z,8.28
2019-03-24T20:47:14.434Z,8.25
2019-03-24T20:49:42.183Z,8.08
2019-03-24T20:52:10.461Z,8.00
2019-03-24T20:54:41.259Z,7.93
2019-03-24T20:57:09.023Z,7.78
2019-03-24T20:59:36.900Z,7.54
2019-03-24T21:02:04.774Z,7.49
2019-03-24T21:04:32.625Z,7.39
2019-03-24T21:07:00.805Z,7.28
2019-03-24T21:09:28.674Z,7.23
2019-03-24T21:11:56.399Z,7.19
2019-03-24T21:14:26.299Z,7.29
2019-03-24T21:16:56.763Z,7.38
2019-03-24T21:19:24.429Z,7.37
2019-03-24T21:21:52.061Z,7.36
2019-03-24T21:24:19.703Z,7.19
2019-03-24T21:26:47.428Z,7.25
2019-03-24T21:29:15.101Z,7.23
2019-03-24T21:31:42.862Z,7.14
2019-03-24T21:34:11.206Z,7.10
2019-03-24T21:36:38.850Z,7.07
2019-03-24T21:39:07.022Z,6.85
2019-03-24T21:41:34.861Z,6.80
2019-03-24T21:44:02.479Z,6.72
2019-03-24T21:46:30.098Z,6.74
2019-03-24T21:48:58.201Z,6.78
2019-03-24T21:51:26.000Z,6.73
2019-03-24T21:53:53.844Z,6.70
2019-03-24T21:56:21.988Z,6.65
2019-03-24T21:58:49.721Z,6.66
2019-03-24T22:01:17.435Z,6.57
2019-03-24T22:03:45.368Z,6.57
2019-03-24T22:06:14.042Z,6.61
2019-03-24T22:08:41.925Z,6.67
2019-03-24T22:11:10.005Z,6.67
2019-03-24T22:13:37.917Z,6.67
2019-03-24T22:16:05.740Z,6.58
2019-03-24T22:18:33.452Z,6.58
2019-03-24T22:21:03.717Z,6.67
2019-03-24T22:23:31.606Z,6.71
2019-03-24T22:25:59.201Z,6.62
2019-03-24T22:28:26.825Z,6.61
2019-03-24T22:30:54.618Z,6.41
2019-03-24T22:33:22.378Z,6.41
2019-03-24T22:35:50.002Z,6.34
2019-03-24T22:38:17.635Z,6.22
2019-03-24T22:40:46.601Z,6.22
2019-03-24T22:43:14.673Z,6.24
2019-03-24T22:45:42.613Z,6.15
2019-03-24T22:48:10.334Z,6.21
2019-03-24T22:50:38.146Z,6.16
2019-03-24T22:53:05.899Z,6.08
2019-03-24T22:55:33.860Z,6.19
2019-03-24T22:58:01.477Z,6.21
2019-03-24T23:00:47.976Z,6.00
2019-03-24T23:03:17.057Z,6.05
2019-03-24T23:05:44.792Z,6.02
2019-03-24T23:08:12.758Z,6.04
2019-03-24T23:10:40.774Z,6.06
2019-03-24T23:13:08.374Z,6.03
2019-03-24T23:15:36.044Z,6.01
2019-03-24T23:18:03.651Z,5.98
2019-03-24T23:20:31.287Z,5.88
2019-03-24T23:22:59.280Z,5.95
2019-03-24T23:25:28.567Z,5.85
2019-03-24T23:27:56.397Z,5.69
2019-03-24T23:30:25.192Z,5.57
2019-03-24T23:32:53.715Z,5.32
2019-03-24T23:35:21.270Z,5.26
2019-03-24T23:37:49.342Z,5.47
2019-03-24T23:40:16.936Z,5.42
2019-03-24T23:42:44.686Z,5.39
2019-03-24T23:45:12.595Z,5.34
2019-03-24T23:47:40.241Z,5.21
2019-03-24T23:50:08.310Z,5.18
2019-03-24T23:52:36.638Z,5.26
2019-03-24T23:55:04.588Z,4.91
2019-03-24T23:57:32.167Z,4.86
2019-03-24T23:59:59.931Z,4.76
